sensor_id;sensor_type;location;lat;lon;timestamp;P1;durP1;ratioP1;P2;durP2;ratioP2
11086;SDS011;5597;47.588;9.642;2024-03-02T00:00:05;10.43;;;9.33;;
11086;SDS011;5597;47.588;9.642;2024-03-02T00:02:40;11.40;;;10.20;;
11086;SDS011;5597;47.588;9.642;2024-03-02T00:05:06;11.77;;;10.33;;
11086;SDS011;5597;47.588;9.642;2024-03-02T00:07:33;12.70;;;9.97;;
11086;SDS011;5597;47.588;9.642;2024-03-02T00:09:59;12.57;;;10.37;;
11086;SDS011;5597;47.588;9.642;2024-03-02T00:12:25;11.17;;;9.87;;
11086;SDS011;5597;47.588;9.642;2024-03-02T00:14:51;11.27;;;10.07;;
11086;SDS011;5597;47.588;9.642;2024-03-02T00:17:24;11.37;;;9.63;;
11086;SDS011;5597;47.588;9.642;2024-03-02T00:19:52;12.53;;;10.47;;
11086;SDS011;5597;47.588;9.642;2024-03-02T00:22:18;11.00;;;9.23;;
11086;SDS011;5597;47.588;9.642;2024-03-02T00:24:44;11.17;;;9.20;;
11086;SDS011;5597;47.588;9.642;2024-03-02T00:27:09;11.37;;;10.03;;
11086;SDS011;5597;47.588;9.642;2024-03-02T00:29:39;11.53;;;10.33;;
11086;SDS011;5597;47.588;9.642;2024-03-02T00:32:14;11.13;;;9.93;;
11086;SDS011;5597;47.588;9.642;2024-03-02T00:34:41;11.13;;;9.77;;
11086;SDS011;5597;47.588;9.642;2024-03-02T00:37:07;11.03;;;9.57;;
11086;SDS011;5597;47.588;9.642;2024-03-02T00:39:33;11.40;;;10.07;;
11086;SDS011;5597;47.588;9.642;2024-03-02T00:41:59;10.77;;;9.40;;
11086;SDS011;5597;47.588;9.642;2024-03-02T00:44:25;11.77;;;10.03;;
11086;SDS011;5597;47.588;9.642;2024-03-02T00:46:51;10.57;;;8.93;;
11086;SDS011;5597;47.588;9.642;2024-03-02T00:49:22;12.73;;;10.67;;
11086;SDS011;5597;47.588;9.642;2024-03-02T00:51:51;9.97;;;8.97;;
11086;SDS011;5597;47.588;9.642;2024-03-02T00:54:21;10.40;;;8.67;;
11086;SDS011;5597;47.588;9.642;2024-03-02T00:56:50;9.77;;;8.77;;
11086;SDS011;5597;47.588;9.642;2024-03-02T00:59:17;9.13;;;7.90;;
11086;SDS011;5597;47.588;9.642;2024-03-02T01:01:43;9.33;;;8.33;;
11086;SDS011;5597;47.588;9.642;2024-03-02T01:04:08;9.70;;;8.40;;
11086;SDS011;5597;47.588;9.642;2024-03-02T01:06:34;8.73;;;7.80;;
11086;SDS011;5597;47.588;9.642;2024-03-02T01:09:00;8.13;;;7.17;;
11086;SDS011;5597;47.588;9.642;2024-03-02T01:11:27;9.80;;;8.63;;
11086;SDS011;5597;47.588;9.642;2024-03-02T01:13:53;10.43;;;9.07;;
11086;SDS011;5597;47.588;9.642;2024-03-02T01:16:18;10.23;;;9.03;;
11086;SDS011;5597;47.588;9.642;2024-03-02T01:18:44;12.33;;;9.83;;
11086;SDS011;5597;47.588;9.642;2024-03-02T01:21:10;10.27;;;9.17;;
11086;SDS011;5597;47.588;9.642;2024-03-02T01:23:36;11.87;;;9.87;;
11086;SDS011;5597;47.588;9.642;2024-03-02T01:26:01;12.70;;;11.10;;
11086;SDS011;5597;47.588;9.642;2024-03-02T01:28:27;11.40;;;9.83;;
11086;SDS011;5597;47.588;9.642;2024-03-02T01:30:53;11.57;;;10.23;;
11086;SDS011;5597;47.588;9.642;2024-03-02T01:33:19;11.30;;;9.63;;
11086;SDS011;5597;47.588;9.642;2024-03-02T01:35:44;12.17;;;10.23;;
11086;SDS011;5597;47.588;9.642;2024-03-02T01:38:10;11.20;;;9.87;;
11086;SDS011;5597;47.588;9.642;2024-03-02T01:40:37;11.67;;;9.60;;
11086;SDS011;5597;47.588;9.642;2024-03-02T01:43:04;11.27;;;10.03;;
11086;SDS011;5597;47.588;9.642;2024-03-02T01:45:30;11.73;;;10.37;;
11086;SDS011;5597;47.588;9.642;2024-03-02T01:47:56;10.33;;;9.27;;
11086;SDS011;5597;47.588;9.642;2024-03-02T01:50:29;14.30;;;11.13;;
11086;SDS011;5597;47.588;9.642;2024-03-02T01:52:58;11.57;;;10.37;;
11086;SDS011;5597;47.588;9.642;2024-03-02T01:55:24;11.97;;;10.67;;
11086;SDS011;5597;47.588;9.642;2024-03-02T01:57:51;11.53;;;9.67;;
11086;SDS011;5597;47.588;9.642;2024-03-02T02:00:17;10.27;;;9.13;;
11086;SDS011;5597;47.588;9.642;2024-03-02T02:02:44;10.07;;;9.00;;
11086;SDS011;5597;47.588;9.642;2024-03-02T02:05:10;10.63;;;9.23;;
11086;SDS011;5597;47.588;9.642;2024-03-02T02:07:36;10.83;;;9.80;;
11086;SDS011;5597;47.588;9.642;2024-03-02T02:10:02;12.20;;;10.90;;
11086;SDS011;5597;47.588;9.642;2024-03-02T02:12:28;12.27;;;10.53;;
11086;SDS011;5597;47.588;9.642;2024-03-02T02:14:55;10.43;;;9.33;;
11086;SDS011;5597;47.588;9.642;2024-03-02T02:17:20;9.63;;;8.70;;
11086;SDS011;5597;47.588;9.642;2024-03-02T02:19:46;10.10;;;9.10;;
11086;SDS011;5597;47.588;9.642;2024-03-02T02:22:12;10.63;;;9.53;;
11086;SDS011;5597;47.588;9.642;2024-03-02T02:24:41;10.73;;;9.63;;
11086;SDS011;5597;47.588;9.642;2024-03-02T02:27:07;10.80;;;9.70;;
11086;SDS011;5597;47.588;9.642;2024-03-02T02:29:33;11.73;;;10.30;;
11086;SDS011;5597;47.588;9.642;2024-03-02T02:31:59;11.47;;;10.27;;
11086;SDS011;5597;47.588;9.642;2024-03-02T02:34:24;11.90;;;10.33;;
11086;SDS011;5597;47.588;9.642;2024-03-02T02:36:50;10.83;;;9.73;;
11086;SDS011;5597;47.588;9.642;2024-03-02T02:39:16;11.27;;;10.17;;
11086;SDS011;5597;47.588;9.642;2024-03-02T02:41:44;11.43;;;10.23;;
11086;SDS011;5597;47.588;9.642;2024-03-02T02:44:10;11.10;;;9.90;;
11086;SDS011;5597;47.588;9.642;2024-03-02T02:46:38;12.53;;;10.97;;
11086;SDS011;5597;47.588;9.642;2024-03-02T02:49:04;12.00;;;10.80;;
11086;SDS011;5597;47.588;9.642;2024-03-02T02:51:29;12.20;;;10.90;;
11086;SDS011;5597;47.588;9.642;2024-03-02T02:53:55;12.57;;;11.27;;
11086;SDS011;5597;47.588;9.642;2024-03-02T02:56:20;14.00;;;12.53;;
11086;SDS011;5597;47.588;9.642;2024-03-02T02:58:46;15.87;;;12.67;;
11086;SDS011;5597;47.588;9.642;2024-03-02T03:01:11;13.17;;;11.77;;
11086;SDS011;5597;47.588;9.642;2024-03-02T03:03:37;12.67;;;11.37;;
11086;SDS011;5597;47.588;9.642;2024-03-02T03:06:03;13.33;;;11.93;;
11086;SDS011;5597;47.588;9.642;2024-03-02T03:08:28;13.97;;;12.57;;
11086;SDS011;5597;47.588;9.642;2024-03-02T03:10:54;14.57;;;12.80;;
11086;SDS011;5597;47.588;9.642;2024-03-02T03:13:20;15.30;;;12.57;;
11086;SDS011;5597;47.588;9.642;2024-03-02T03:15:45;13.60;;;12.20;;
11086;SDS011;5597;47.588;9.642;2024-03-02T03:18:11;14.27;;;12.50;;
11086;SDS011;5597;47.588;9.642;2024-03-02T03:20:37;13.43;;;11.87;;
11086;SDS011;5597;47.588;9.642;2024-03-02T03:23:02;12.40;;;11.10;;
11086;SDS011;5597;47.588;9.642;2024-03-02T03:25:29;12.43;;;11.17;;
11086;SDS011;5597;47.588;9.642;2024-03-02T03:27:55;12.53;;;11.23;;
11086;SDS011;5597;47.588;9.642;2024-03-02T03:30:20;12.10;;;10.80;;
11086;SDS011;5597;47.588;9.642;2024-03-02T03:32:46;13.67;;;12.17;;
11086;SDS011;5597;47.588;9.642;2024-03-02T03:35:13;14.77;;;13.10;;
11086;SDS011;5597;47.588;9.642;2024-03-02T03:37:40;12.90;;;11.50;;
11086;SDS011;5597;47.588;9.642;2024-03-02T03:40:06;12.27;;;10.97;;
11086;SDS011;5597;47.588;9.642;2024-03-02T03:42:35;13.33;;;11.93;;
11086;SDS011;5597;47.588;9.642;2024-03-02T03:45:01;13.43;;;11.50;;
11086;SDS011;5597;47.588;9.642;2024-03-02T03:47:27;13.90;;;12.37;;
11086;SDS011;5597;47.588;9.642;2024-03-02T03:49:52;13.30;;;11.67;;
11086;SDS011;5597;47.588;9.642;2024-03-02T03:52:18;12.73;;;11.43;;
11086;SDS011;5597;47.588;9.642;2024-03-02T03:54:43;13.07;;;11.67;;
11086;SDS011;5597;47.588;9.642;2024-03-02T03:57:09;12.63;;;11.33;;
11086;SDS011;5597;47.588;9.642;2024-03-02T03:59:35;13.07;;;11.37;;
11086;SDS011;5597;47.588;9.642;2024-03-02T04:02:02;13.20;;;11.80;;
11086;SDS011;5597;47.588;9.642;2024-03-02T04:04:28;13.87;;;11.30;;
11086;SDS011;5597;47.588;9.642;2024-03-02T04:06:54;13.10;;;11.37;;
11086;SDS011;5597;47.588;9.642;2024-03-02T04:09:19;14.87;;;12.87;;
11086;SDS011;5597;47.588;9.642;2024-03-02T04:11:45;16.97;;;14.33;;
11086;SDS011;5597;47.588;9.642;2024-03-02T04:14:11;16.00;;;14.00;;
11086;SDS011;5597;47.588;9.642;2024-03-02T04:16:37;14.70;;;12.97;;
11086;SDS011;5597;47.588;9.642;2024-03-02T04:19:03;13.87;;;12.37;;
11086;SDS011;5597;47.588;9.642;2024-03-02T04:21:29;16.17;;;13.93;;
11086;SDS011;5597;47.588;9.642;2024-03-02T04:23:54;16.13;;;14.37;;
11086;SDS011;5597;47.588;9.642;2024-03-02T04:26:23;16.97;;;14.80;;
11086;SDS011;5597;47.588;9.642;2024-03-02T04:28:50;16.30;;;13.83;;
11086;SDS011;5597;47.588;9.642;2024-03-02T04:31:16;15.70;;;13.53;;
11086;SDS011;5597;47.588;9.642;2024-03-02T04:33:42;15.60;;;13.07;;
11086;SDS011;5597;47.588;9.642;2024-03-02T04:36:08;15.00;;;13.40;;
11086;SDS011;5597;47.588;9.642;2024-03-02T04:38:34;15.50;;;13.00;;
11086;SDS011;5597;47.588;9.642;2024-03-02T04:41:00;16.33;;;13.53;;
11086;SDS011;5597;47.588;9.642;2024-03-02T04:43:26;18.13;;;15.93;;
11086;SDS011;5597;47.588;9.642;2024-03-02T04:45:52;17.20;;;15.37;;
11086;SDS011;5597;47.588;9.642;2024-03-02T04:48:17;17.03;;;14.70;;
11086;SDS011;5597;47.588;9.642;2024-03-02T04:50:44;15.43;;;13.77;;
11086;SDS011;5597;47.588;9.642;2024-03-02T04:53:10;15.53;;;13.80;;
11086;SDS011;5597;47.588;9.642;2024-03-02T04:55:35;14.90;;;12.90;;
11086;SDS011;5597;47.588;9.642;2024-03-02T04:58:06;15.67;;;13.13;;
11086;SDS011;5597;47.588;9.642;2024-03-02T05:00:32;15.77;;;13.33;;
11086;SDS011;5597;47.588;9.642;2024-03-02T05:02:58;15.83;;;13.47;;
11086;SDS011;5597;47.588;9.642;2024-03-02T05:05:24;15.77;;;14.07;;
11086;SDS011;5597;47.588;9.642;2024-03-02T05:07:50;16.23;;;13.93;;
11086;SDS011;5597;47.588;9.642;2024-03-02T05:10:16;19.37;;;16.80;;
11086;SDS011;5597;47.588;9.642;2024-03-02T05:12:41;20.03;;;16.20;;
11086;SDS011;5597;47.588;9.642;2024-03-02T05:15:07;21.33;;;17.63;;
11086;SDS011;5597;47.588;9.642;2024-03-02T05:17:35;20.10;;;17.33;;
11086;SDS011;5597;47.588;9.642;2024-03-02T05:20:00;18.23;;;15.83;;
11086;SDS011;5597;47.588;9.642;2024-03-02T05:22:26;21.13;;;17.83;;
11086;SDS011;5597;47.588;9.642;2024-03-02T05:24:52;19.60;;;17.33;;
11086;SDS011;5597;47.588;9.642;2024-03-02T05:27:18;19.37;;;17.07;;
11086;SDS011;5597;47.588;9.642;2024-03-02T05:29:43;17.77;;;15.13;;
11086;SDS011;5597;47.588;9.642;2024-03-02T05:32:09;17.83;;;15.53;;
11086;SDS011;5597;47.588;9.642;2024-03-02T05:34:34;17.97;;;15.43;;
11086;SDS011;5597;47.588;9.642;2024-03-02T05:37:00;17.33;;;15.33;;
11086;SDS011;5597;47.588;9.642;2024-03-02T05:39:26;18.33;;;15.83;;
11086;SDS011;5597;47.588;9.642;2024-03-02T05:41:52;17.43;;;15.57;;
11086;SDS011;5597;47.588;9.642;2024-03-02T05:44:18;16.60;;;14.80;;
11086;SDS011;5597;47.588;9.642;2024-03-02T05:46:44;17.50;;;15.50;;
11086;SDS011;5597;47.588;9.642;2024-03-02T05:49:10;16.07;;;14.07;;
11086;SDS011;5597;47.588;9.642;2024-03-02T05:51:36;15.30;;;13.70;;
11086;SDS011;5597;47.588;9.642;2024-03-02T05:54:01;16.97;;;15.17;;
11086;SDS011;5597;47.588;9.642;2024-03-02T05:56:27;16.90;;;15.10;;
11086;SDS011;5597;47.588;9.642;2024-03-02T05:58:53;17.83;;;15.70;;
11086;SDS011;5597;47.588;9.642;2024-03-02T06:01:44;16.27;;;14.53;;
11086;SDS011;5597;47.588;9.642;2024-03-02T06:04:12;17.07;;;15.00;;
11086;SDS011;5597;47.588;9.642;2024-03-02T06:06:38;17.10;;;15.30;;
11086;SDS011;5597;47.588;9.642;2024-03-02T06:09:04;17.40;;;15.57;;
11086;SDS011;5597;47.588;9.642;2024-03-02T06:11:33;17.37;;;14.70;;
11086;SDS011;5597;47.588;9.642;2024-03-02T06:14:01;15.93;;;13.83;;
11086;SDS011;5597;47.588;9.642;2024-03-02T06:16:27;19.43;;;16.67;;
11086;SDS011;5597;47.588;9.642;2024-03-02T06:18:53;18.57;;;16.13;;
11086;SDS011;5597;47.588;9.642;2024-03-02T06:21:19;17.43;;;15.37;;
11086;SDS011;5597;47.588;9.642;2024-03-02T06:23:45;18.53;;;15.67;;
11086;SDS011;5597;47.588;9.642;2024-03-02T06:26:11;17.87;;;15.73;;
11086;SDS011;5597;47.588;9.642;2024-03-02T06:28:37;16.97;;;15.03;;
11086;SDS011;5597;47.588;9.642;2024-03-02T06:31:03;16.97;;;14.63;;
11086;SDS011;5597;47.588;9.642;2024-03-02T06:33:29;17.17;;;15.07;;
11086;SDS011;5597;47.588;9.642;2024-03-02T06:35:55;19.23;;;16.87;;
11086;SDS011;5597;47.588;9.642;2024-03-02T06:38:20;17.90;;;15.87;;
11086;SDS011;5597;47.588;9.642;2024-03-02T06:40:46;18.23;;;15.90;;
11086;SDS011;5597;47.588;9.642;2024-03-02T06:43:11;18.47;;;15.80;;
11086;SDS011;5597;47.588;9.642;2024-03-02T06:45:37;17.60;;;15.70;;
11086;SDS011;5597;47.588;9.642;2024-03-02T06:48:03;16.17;;;14.27;;
11086;SDS011;5597;47.588;9.642;2024-03-02T06:50:29;16.93;;;14.47;;
11086;SDS011;5597;47.588;9.642;2024-03-02T06:52:55;15.53;;;13.83;;
11086;SDS011;5597;47.588;9.642;2024-03-02T06:55:21;16.87;;;14.30;;
11086;SDS011;5597;47.588;9.642;2024-03-02T06:57:47;16.27;;;14.57;;
11086;SDS011;5597;47.588;9.642;2024-03-02T07:00:12;13.80;;;12.33;;
11086;SDS011;5597;47.588;9.642;2024-03-02T07:02:39;13.97;;;11.67;;
11086;SDS011;5597;47.588;9.642;2024-03-02T07:05:06;14.37;;;12.87;;
11086;SDS011;5597;47.588;9.642;2024-03-02T07:07:33;14.90;;;13.27;;
11086;SDS011;5597;47.588;9.642;2024-03-02T07:10:00;14.17;;;12.67;;
11086;SDS011;5597;47.588;9.642;2024-03-02T07:12:26;13.13;;;11.77;;
11086;SDS011;5597;47.588;9.642;2024-03-02T07:14:51;15.17;;;13.20;;
11086;SDS011;5597;47.588;9.642;2024-03-02T07:17:29;13.63;;;12.23;;
11086;SDS011;5597;47.588;9.642;2024-03-02T07:19:55;14.77;;;13.17;;
11086;SDS011;5597;47.588;9.642;2024-03-02T07:22:21;14.97;;;13.37;;
11086;SDS011;5597;47.588;9.642;2024-03-02T07:24:48;13.83;;;12.33;;
11086;SDS011;5597;47.588;9.642;2024-03-02T07:27:14;13.63;;;12.23;;
11086;SDS011;5597;47.588;9.642;2024-03-02T07:29:41;13.53;;;12.13;;
11086;SDS011;5597;47.588;9.642;2024-03-02T07:32:07;14.00;;;12.60;;
11086;SDS011;5597;47.588;9.642;2024-03-02T07:34:33;12.10;;;10.80;;
11086;SDS011;5597;47.588;9.642;2024-03-02T07:37:02;13.87;;;12.37;;
11086;SDS011;5597;47.588;9.642;2024-03-02T07:39:29;15.00;;;13.40;;
11086;SDS011;5597;47.588;9.642;2024-03-02T07:41:55;12.43;;;11.13;;
11086;SDS011;5597;47.588;9.642;2024-03-02T07:44:20;12.47;;;11.17;;
11086;SDS011;5597;47.588;9.642;2024-03-02T07:46:46;12.40;;;10.73;;
11086;SDS011;5597;47.588;9.642;2024-03-02T07:49:14;11.90;;;10.70;;
11086;SDS011;5597;47.588;9.642;2024-03-02T07:51:40;11.53;;;10.33;;
11086;SDS011;5597;47.588;9.642;2024-03-02T07:54:06;10.60;;;9.50;;
11086;SDS011;5597;47.588;9.642;2024-03-02T07:56:32;10.50;;;9.40;;
11086;SDS011;5597;47.588;9.642;2024-03-02T07:58:58;11.47;;;9.73;;
11086;SDS011;5597;47.588;9.642;2024-03-02T08:01:26;11.23;;;9.67;;
11086;SDS011;5597;47.588;9.642;2024-03-02T08:03:56;10.47;;;9.20;;
11086;SDS011;5597;47.588;9.642;2024-03-02T08:06:26;10.20;;;9.10;;
11086;SDS011;5597;47.588;9.642;2024-03-02T08:08:53;9.23;;;8.33;;
11086;SDS011;5597;47.588;9.642;2024-03-02T08:11:19;9.37;;;8.47;;
11086;SDS011;5597;47.588;9.642;2024-03-02T08:13:45;8.97;;;8.07;;
11086;SDS011;5597;47.588;9.642;2024-03-02T08:16:11;9.50;;;8.50;;
11086;SDS011;5597;47.588;9.642;2024-03-02T08:18:37;9.50;;;8.57;;
11086;SDS011;5597;47.588;9.642;2024-03-02T08:21:02;11.33;;;10.13;;
11086;SDS011;5597;47.588;9.642;2024-03-02T08:23:28;12.17;;;9.77;;
11086;SDS011;5597;47.588;9.642;2024-03-02T08:25:54;9.87;;;8.87;;
11086;SDS011;5597;47.588;9.642;2024-03-02T08:28:20;9.43;;;8.47;;
11086;SDS011;5597;47.588;9.642;2024-03-02T08:30:45;8.83;;;7.93;;
11086;SDS011;5597;47.588;9.642;2024-03-02T08:33:11;8.50;;;7.60;;
11086;SDS011;5597;47.588;9.642;2024-03-02T08:35:36;7.77;;;6.97;;
11086;SDS011;5597;47.588;9.642;2024-03-02T08:38:02;7.13;;;6.43;;
11086;SDS011;5597;47.588;9.642;2024-03-02T08:40:29;8.03;;;6.70;;
11086;SDS011;5597;47.588;9.642;2024-03-02T08:42:55;6.93;;;6.23;;
11086;SDS011;5597;47.588;9.642;2024-03-02T08:45:20;6.73;;;6.03;;
11086;SDS011;5597;47.588;9.642;2024-03-02T08:47:46;7.13;;;6.43;;
11086;SDS011;5597;47.588;9.642;2024-03-02T08:50:12;6.87;;;6.17;;
11086;SDS011;5597;47.588;9.642;2024-03-02T08:52:38;6.57;;;5.97;;
11086;SDS011;5597;47.588;9.642;2024-03-02T08:55:03;7.07;;;6.37;;
11086;SDS011;5597;47.588;9.642;2024-03-02T08:57:30;6.03;;;5.43;;
11086;SDS011;5597;47.588;9.642;2024-03-02T08:59:56;6.70;;;6.00;;
11086;SDS011;5597;47.588;9.642;2024-03-02T09:02:22;6.17;;;5.53;;
11086;SDS011;5597;47.588;9.642;2024-03-02T09:04:48;5.70;;;5.20;;
11086;SDS011;5597;47.588;9.642;2024-03-02T09:07:14;5.77;;;5.27;;
11086;SDS011;5597;47.588;9.642;2024-03-02T09:09:40;5.30;;;4.80;;
11086;SDS011;5597;47.588;9.642;2024-03-02T09:12:06;5.50;;;5.00;;
11086;SDS011;5597;47.588;9.642;2024-03-02T09:14:32;5.23;;;4.73;;
11086;SDS011;5597;47.588;9.642;2024-03-02T09:16:58;5.33;;;4.83;;
11086;SDS011;5597;47.588;9.642;2024-03-02T09:19:23;4.73;;;4.33;;
11086;SDS011;5597;47.588;9.642;2024-03-02T09:21:49;6.13;;;4.20;;
11086;SDS011;5597;47.588;9.642;2024-03-02T09:24:15;4.70;;;4.20;;
11086;SDS011;5597;47.588;9.642;2024-03-02T09:26:41;3.77;;;3.40;;
11086;SDS011;5597;47.588;9.642;2024-03-02T09:29:06;3.73;;;3.33;;
11086;SDS011;5597;47.588;9.642;2024-03-02T09:31:32;4.07;;;3.67;;
11086;SDS011;5597;47.588;9.642;2024-03-02T09:33:57;3.37;;;3.07;;
11086;SDS011;5597;47.588;9.642;2024-03-02T09:36:23;3.13;;;2.90;;
11086;SDS011;5597;47.588;9.642;2024-03-02T09:38:49;3.07;;;2.77;;
11086;SDS011;5597;47.588;9.642;2024-03-02T09:41:14;3.13;;;2.83;;
11086;SDS011;5597;47.588;9.642;2024-03-02T09:43:40;4.03;;;2.80;;
11086;SDS011;5597;47.588;9.642;2024-03-02T09:46:07;3.83;;;2.90;;
11086;SDS011;5597;47.588;9.642;2024-03-02T09:48:34;3.27;;;2.37;;
11086;SDS011;5597;47.588;9.642;2024-03-02T09:51:00;2.30;;;2.00;;
11086;SDS011;5597;47.588;9.642;2024-03-02T09:53:29;3.80;;;2.07;;
11086;SDS011;5597;47.588;9.642;2024-03-02T09:55:56;1.97;;;1.60;;
11086;SDS011;5597;47.588;9.642;2024-03-02T09:58:23;2.30;;;2.00;;
11086;SDS011;5597;47.588;9.642;2024-03-02T10:00:49;2.47;;;1.70;;
11086;SDS011;5597;47.588;9.642;2024-03-02T10:03:14;1.90;;;1.40;;
11086;SDS011;5597;47.588;9.642;2024-03-02T10:05:40;1.70;;;1.57;;
11086;SDS011;5597;47.588;9.642;2024-03-02T10:08:06;1.70;;;1.40;;
11086;SDS011;5597;47.588;9.642;2024-03-02T10:10:40;1.50;;;1.40;;
11086;SDS011;5597;47.588;9.642;2024-03-02T10:13:12;1.83;;;1.40;;
11086;SDS011;5597;47.588;9.642;2024-03-02T10:15:39;2.60;;;1.73;;
11086;SDS011;5597;47.588;9.642;2024-03-02T10:18:08;2.03;;;1.40;;
11086;SDS011;5597;47.588;9.642;2024-03-02T10:20:38;1.83;;;1.23;;
11086;SDS011;5597;47.588;9.642;2024-03-02T10:25:45;3.57;;;1.30;;
11086;SDS011;5597;47.588;9.642;2024-03-02T10:28:11;1.37;;;1.23;;
11086;SDS011;5597;47.588;9.642;2024-03-02T10:30:37;1.30;;;1.20;;
11086;SDS011;5597;47.588;9.642;2024-03-02T10:33:02;1.20;;;1.10;;
11086;SDS011;5597;47.588;9.642;2024-03-02T10:35:30;1.63;;;1.00;;
11086;SDS011;5597;47.588;9.642;2024-03-02T10:37:58;1.73;;;1.23;;
11086;SDS011;5597;47.588;9.642;2024-03-02T10:40:26;1.70;;;1.37;;
11086;SDS011;5597;47.588;9.642;2024-03-02T10:42:51;2.47;;;1.30;;
11086;SDS011;5597;47.588;9.642;2024-03-02T10:45:18;1.13;;;1.03;;
11086;SDS011;5597;47.588;9.642;2024-03-02T10:47:46;3.13;;;1.10;;
11086;SDS011;5597;47.588;9.642;2024-03-02T10:50:12;1.73;;;1.30;;
11086;SDS011;5597;47.588;9.642;2024-03-02T10:52:38;1.13;;;1.03;;
11086;SDS011;5597;47.588;9.642;2024-03-02T10:55:04;1.43;;;1.00;;
11086;SDS011;5597;47.588;9.642;2024-03-02T11:00:20;1.40;;;1.27;;
11086;SDS011;5597;47.588;9.642;2024-03-02T11:02:54;1.73;;;1.20;;
11086;SDS011;5597;47.588;9.642;2024-03-02T11:05:31;1.20;;;1.10;;
11086;SDS011;5597;47.588;9.642;2024-03-02T11:08:17;1.30;;;1.20;;
11086;SDS011;5597;47.588;9.642;2024-03-02T11:10:52;1.30;;;1.20;;
11086;SDS011;5597;47.588;9.642;2024-03-02T11:13:32;1.33;;;1.23;;
11086;SDS011;5597;47.588;9.642;2024-03-02T11:15:59;1.57;;;1.40;;
11086;SDS011;5597;47.588;9.642;2024-03-02T11:18:31;1.53;;;1.43;;
11086;SDS011;5597;47.588;9.642;2024-03-02T11:20:58;1.53;;;1.43;;
11086;SDS011;5597;47.588;9.642;2024-03-02T11:23:34;1.70;;;1.60;;
11086;SDS011;5597;47.588;9.642;2024-03-02T11:28:45;1.70;;;1.57;;
11086;SDS011;5597;47.588;9.642;2024-03-02T11:31:11;2.60;;;1.90;;
11086;SDS011;5597;47.588;9.642;2024-03-02T11:33:36;1.93;;;1.80;;
11086;SDS011;5597;47.588;9.642;2024-03-02T11:36:02;2.13;;;1.90;;
11086;SDS011;5597;47.588;9.642;2024-03-02T11:38:29;2.23;;;2.00;;
11086;SDS011;5597;47.588;9.642;2024-03-02T11:40:57;2.20;;;2.00;;
11086;SDS011;5597;47.588;9.642;2024-03-02T11:43:25;2.30;;;2.10;;
11086;SDS011;5597;47.588;9.642;2024-03-02T11:45:57;2.17;;;1.97;;
11086;SDS011;5597;47.588;9.642;2024-03-02T11:48:24;1.90;;;1.77;;
11086;SDS011;5597;47.588;9.642;2024-03-02T11:50:50;2.23;;;2.03;;
11086;SDS011;5597;47.588;9.642;2024-03-02T11:53:16;1.73;;;1.63;;
11086;SDS011;5597;47.588;9.642;2024-03-02T11:55:43;2.50;;;2.20;;
11086;SDS011;5597;47.588;9.642;2024-03-02T11:58:13;2.20;;;2.00;;
11086;SDS011;5597;47.588;9.642;2024-03-02T12:00:39;1.90;;;1.80;;
11086;SDS011;5597;47.588;9.642;2024-03-02T12:03:06;2.40;;;2.20;;
11086;SDS011;5597;47.588;9.642;2024-03-02T12:05:33;2.37;;;2.17;;
11086;SDS011;5597;47.588;9.642;2024-03-02T12:08:03;1.90;;;1.70;;
11086;SDS011;5597;47.588;9.642;2024-03-02T12:10:31;2.83;;;2.10;;
11086;SDS011;5597;47.588;9.642;2024-03-02T12:13:04;2.50;;;2.30;;
11086;SDS011;5597;47.588;9.642;2024-03-02T12:15:33;2.73;;;2.53;;
11086;SDS011;5597;47.588;9.642;2024-03-02T12:17:59;2.40;;;2.20;;
11086;SDS011;5597;47.588;9.642;2024-03-02T12:20:27;2.63;;;2.40;;
11086;SDS011;5597;47.588;9.642;2024-03-02T12:22:55;2.50;;;2.20;;
11086;SDS011;5597;47.588;9.642;2024-03-02T12:25:23;2.90;;;2.70;;
11086;SDS011;5597;47.588;9.642;2024-03-02T12:27:50;2.63;;;2.43;;
11086;SDS011;5597;47.588;9.642;2024-03-02T12:30:19;2.47;;;2.23;;
11086;SDS011;5597;47.588;9.642;2024-03-02T12:32:45;2.53;;;2.27;;
11086;SDS011;5597;47.588;9.642;2024-03-02T12:35:11;2.40;;;2.20;;
11086;SDS011;5597;47.588;9.642;2024-03-02T12:40:13;2.80;;;2.60;;
11086;SDS011;5597;47.588;9.642;2024-03-02T12:42:40;2.80;;;2.50;;
11086;SDS011;5597;47.588;9.642;2024-03-02T12:45:07;2.67;;;2.47;;
11086;SDS011;5597;47.588;9.642;2024-03-02T12:47:36;2.43;;;2.23;;
11086;SDS011;5597;47.588;9.642;2024-03-02T12:50:05;3.03;;;2.73;;
11086;SDS011;5597;47.588;9.642;2024-03-02T12:52:32;5.00;;;3.60;;
11086;SDS011;5597;47.588;9.642;2024-03-02T12:55:02;3.87;;;3.47;;
11086;SDS011;5597;47.588;9.642;2024-03-02T12:57:32;4.13;;;3.73;;
11086;SDS011;5597;47.588;9.642;2024-03-02T12:59:59;3.43;;;3.13;;
11086;SDS011;5597;47.588;9.642;2024-03-02T13:02:27;2.90;;;2.60;;
11086;SDS011;5597;47.588;9.642;2024-03-02T13:04:54;2.57;;;2.27;;
11086;SDS011;5597;47.588;9.642;2024-03-02T13:07:20;2.70;;;2.27;;
11086;SDS011;5597;47.588;9.642;2024-03-02T13:09:50;3.20;;;2.70;;
11086;SDS011;5597;47.588;9.642;2024-03-02T13:12:16;3.07;;;2.77;;
11086;SDS011;5597;47.588;9.642;2024-03-02T13:14:42;2.80;;;2.50;;
11086;SDS011;5597;47.588;9.642;2024-03-02T13:17:11;2.70;;;2.50;;
11086;SDS011;5597;47.588;9.642;2024-03-02T13:19:43;2.50;;;2.30;;
11086;SDS011;5597;47.588;9.642;2024-03-02T13:22:16;2.40;;;2.20;;
11086;SDS011;5597;47.588;9.642;2024-03-02T13:24:41;3.10;;;2.50;;
11086;SDS011;5597;47.588;9.642;2024-03-02T13:27:07;2.50;;;2.20;;
11086;SDS011;5597;47.588;9.642;2024-03-02T13:29:33;2.37;;;2.17;;
11086;SDS011;5597;47.588;9.642;2024-03-02T13:31:59;2.40;;;2.07;;
11086;SDS011;5597;47.588;9.642;2024-03-02T13:34:24;2.63;;;2.30;;
11086;SDS011;5597;47.588;9.642;2024-03-02T13:36:50;2.33;;;2.10;;
11086;SDS011;5597;47.588;9.642;2024-03-02T13:39:15;2.43;;;2.20;;
11086;SDS011;5597;47.588;9.642;2024-03-02T13:41:41;2.53;;;1.87;;
11086;SDS011;5597;47.588;9.642;2024-03-02T13:44:07;2.13;;;1.93;;
11086;SDS011;5597;47.588;9.642;2024-03-02T13:46:32;2.47;;;2.27;;
11086;SDS011;5597;47.588;9.642;2024-03-02T13:48:58;2.13;;;1.93;;
11086;SDS011;5597;47.588;9.642;2024-03-02T13:51:23;1.80;;;1.70;;
11086;SDS011;5597;47.588;9.642;2024-03-02T13:53:50;2.40;;;1.90;;
11086;SDS011;5597;47.588;9.642;2024-03-02T13:56:16;2.00;;;1.80;;
11086;SDS011;5597;47.588;9.642;2024-03-02T13:58:42;1.70;;;1.60;;
11086;SDS011;5597;47.588;9.642;2024-03-02T14:01:08;1.87;;;1.77;;
11086;SDS011;5597;47.588;9.642;2024-03-02T14:03:34;1.90;;;1.80;;
11086;SDS011;5597;47.588;9.642;2024-03-02T14:06:00;2.10;;;1.90;;
11086;SDS011;5597;47.588;9.642;2024-03-02T14:08:26;2.80;;;2.03;;
11086;SDS011;5597;47.588;9.642;2024-03-02T14:10:51;2.70;;;1.90;;
11086;SDS011;5597;47.588;9.642;2024-03-02T14:13:17;2.20;;;1.90;;
11086;SDS011;5597;47.588;9.642;2024-03-02T14:15:43;1.87;;;1.70;;
11086;SDS011;5597;47.588;9.642;2024-03-02T14:18:09;2.87;;;1.90;;
11086;SDS011;5597;47.588;9.642;2024-03-02T14:20:35;2.27;;;1.87;;
11086;SDS011;5597;47.588;9.642;2024-03-02T14:23:01;2.07;;;1.87;;
11086;SDS011;5597;47.588;9.642;2024-03-02T14:25:28;1.80;;;1.60;;
11086;SDS011;5597;47.588;9.642;2024-03-02T14:27:56;1.30;;;1.20;;
11086;SDS011;5597;47.588;9.642;2024-03-02T14:30:22;1.33;;;1.23;;
11086;SDS011;5597;47.588;9.642;2024-03-02T14:32:48;1.20;;;1.10;;
11086;SDS011;5597;47.588;9.642;2024-03-02T14:35:14;0.97;;;0.90;;
11086;SDS011;5597;47.588;9.642;2024-03-02T14:37:40;1.30;;;1.20;;
11086;SDS011;5597;47.588;9.642;2024-03-02T14:40:06;2.70;;;1.10;;
11086;SDS011;5597;47.588;9.642;2024-03-02T14:42:34;2.80;;;1.60;;
11086;SDS011;5597;47.588;9.642;2024-03-02T14:45:00;2.53;;;1.30;;
11086;SDS011;5597;47.588;9.642;2024-03-02T14:47:28;1.60;;;1.10;;
11086;SDS011;5597;47.588;9.642;2024-03-02T14:49:54;1.03;;;0.97;;
11086;SDS011;5597;47.588;9.642;2024-03-02T14:52:20;1.70;;;1.00;;
11086;SDS011;5597;47.588;9.642;2024-03-02T14:54:46;1.60;;;1.13;;